Time;durP1;ratioP1;P1;durP2;ratioP2;P2;SDS_P1;SDS_P2;PMS_P1;PMS_P2;Temp;Humidity;BMP_temperature;BMP_pressure;BME280_temperature;BME280_humidity;BME280_pressure;Samples;Min_cycle;Max_cycle;Signal;HPM_P1;HPM_P2
2022/05/31 00:00:23;;;;;;;2.63;2.20;;;11.50;99.90;;;;;;5052342;28;20025;-36
2022/05/31 00:02:50;;;;;;;5.22;2.58;;;11.50;99.90;;;;;;5048869;28;20032;-36
2022/05/31 00:05:16;;;;;;;5.13;2.65;;;11.50;99.90;;;;;;5051174;28;20536;-37
2022/05/31 00:07:42;;;;;;;2.47;2.13;;;11.50;99.90;;;;;;5033088;28;20171;-36
2022/05/31 00:10:11;;;;;;;4.75;2.95;;;11.50;99.90;;;;;;5047255;28;20037;-38
2022/05/31 00:12:37;;;;;;;5.25;2.45;;;11.50;99.90;;;;;;5051366;28;20106;-38
2022/05/31 00:15:05;;;;;;;4.90;2.80;;;11.50;99.90;;;;;;5035907;28;20029;-36
2022/05/31 00:17:30;;;;;;;5.30;2.87;;;11.50;99.90;;;;;;5034688;28;20488;-37
2022/05/31 00:19:57;;;;;;;4.18;2.80;;;11.50;99.90;;;;;;5046003;28;20036;-27
2022/05/31 00:22:24;;;;;;;4.07;2.80;;;11.50;99.90;;;;;;5053396;28;20512;-28
2022/05/31 00:24:51;;;;;;;3.58;2.80;;;11.50;99.90;;;;;;5040705;28;20043;-27
2022/05/31 00:27:19;;;;;;;2.47;2.17;;;11.50;99.90;;;;;;5038919;28;20480;-31
2022/05/31 00:29:47;;;;;;;3.28;2.55;;;11.50;99.90;;;;;;5049819;28;20033;-27
2022/05/31 00:32:14;;;;;;;2.42;2.15;;;11.40;99.90;;;;;;5051194;28;20032;-28
2022/05/31 00:34:44;;;;;;;4.25;2.10;;;11.40;99.90;;;;;;5036993;28;20029;-27
2022/05/31 00:37:10;;;;;;;2.05;1.90;;;11.40;99.90;;;;;;5032292;28;20112;-27
2022/05/31 00:39:36;;;;;;;2.95;2.63;;;11.40;99.90;;;;;;5044152;28;20120;-28
2022/05/31 00:42:11;;;;;;;4.70;2.35;;;11.30;99.90;;;;;;5050070;28;20108;-28
2022/05/31 00:44:38;;;;;;;5.22;2.72;;;11.30;99.90;;;;;;5051308;28;20533;-28
2022/05/31 00:47:28;;;;;;;3.20;2.00;;;11.20;99.90;;;;;;5038935;28;20043;-37
2022/05/31 00:50:07;;;;;;;2.97;2.45;;;11.30;99.90;;;;;;5037619;28;20064;-37
2022/05/31 00:52:42;;;;;;;8.63;2.90;;;11.20;99.90;;;;;;5050487;28;20071;-36
2022/05/31 00:55:47;;;;;;;4.57;2.33;;;11.20;99.90;;;;;;5053090;28;20021;-36
2022/05/31 00:58:19;;;;;;;2.85;2.13;;;11.20;99.90;;;;;;5039480;28;20059;-37
2022/05/31 01:00:45;;;;;;;2.33;2.05;;;11.10;99.90;;;;;;5044957;28;20492;-37
2022/05/31 01:03:15;;;;;;;4.80;2.50;;;11.10;99.90;;;;;;5032773;28;20029;-40
2022/05/31 01:05:41;;;;;;;2.95;2.53;;;11.10;99.90;;;;;;5032342;28;20037;-42
2022/05/31 01:08:07;;;;;;;4.28;2.00;;;11.10;99.90;;;;;;5032755;28;20485;-36
2022/05/31 01:10:33;;;;;;;3.35;2.22;;;11.00;99.90;;;;;;5039587;28;20119;-36
2022/05/31 01:13:00;;;;;;;4.45;2.50;;;11.00;99.90;;;;;;5037791;28;20098;-37
2022/05/31 01:15:26;;;;;;;2.50;2.20;;;11.00;99.90;;;;;;5055221;28;20048;-36
2022/05/31 01:17:51;;;;;;;4.22;2.30;;;10.90;99.90;;;;;;5050934;28;20455;-35
2022/05/31 01:20:20;;;;;;;2.53;2.33;;;10.90;99.90;;;;;;5036755;28;20021;-37
2022/05/31 01:22:51;;;;;;;3.67;2.25;;;10.80;99.90;;;;;;5036427;28;20087;-35
2022/05/31 01:25:36;;;;;;;3.65;2.70;;;10.80;99.90;;;;;;5036407;28;20025;-33
2022/05/31 01:28:20;;;;;;;3.90;2.60;;;10.80;99.90;;;;;;5036015;28;20033;-37
2022/05/31 01:30:59;;;;;;;2.83;2.50;;;10.80;99.90;;;;;;5042229;28;20382;-37
2022/05/31 01:33:33;;;;;;;3.38;2.70;;;10.70;99.90;;;;;;5049172;28;20511;-37
2022/05/31 01:36:06;;;;;;;7.05;2.75;;;10.70;99.90;;;;;;5036115;28;20029;-37
2022/05/31 01:38:40;;;;;;;4.03;2.70;;;10.70;99.90;;;;;;5037549;28;20029;-36
2022/05/31 01:41:24;;;;;;;2.47;2.28;;;10.70;99.90;;;;;;5035343;28;20034;-37
2022/05/31 01:43:52;;;;;;;4.90;2.15;;;10.60;99.90;;;;;;5035956;28;20025;-36
2022/05/31 01:46:24;;;;;;;4.90;2.85;;;10.60;99.90;;;;;;5035959;28;20033;-37
2022/05/31 01:48:51;;;;;;;3.10;2.50;;;10.60;99.90;;;;;;5035720;28;20064;-37
2022/05/31 01:51:17;;;;;;;2.97;2.50;;;10.50;99.90;;;;;;5035007;28;20100;-36
2022/05/31 01:53:43;;;;;;;2.65;2.05;;;10.50;99.90;;;;;;5043122;28;20121;-36
2022/05/31 01:56:10;;;;;;;3.70;2.83;;;10.50;99.90;;;;;;5047678;28;20029;-35
2022/05/31 01:58:38;;;;;;;2.63;2.42;;;10.50;99.90;;;;;;5048236;28;20080;-48
2022/05/31 02:01:04;;;;;;;3.45;2.67;;;10.50;99.90;;;;;;5035085;28;20029;-37
2022/05/31 02:03:32;;;;;;;2.45;2.22;;;10.50;99.90;;;;;;5040725;28;20028;-36
2022/05/31 02:05:59;;;;;;;5.50;2.38;;;10.50;99.90;;;;;;5052178;28;20381;-36
2022/05/31 02:08:29;;;;;;;4.57;2.42;;;10.50;99.90;;;;;;5050958;28;20473;-36
2022/05/31 02:10:56;;;;;;;3.75;2.40;;;10.50;99.90;;;;;;5051823;28;20388;-36
2022/05/31 02:13:22;;;;;;;6.68;2.85;;;10.50;99.90;;;;;;5055104;28;20048;-37
2022/05/31 02:15:48;;;;;;;2.50;2.20;;;10.50;99.90;;;;;;5055127;28;20489;-37
2022/05/31 02:18:14;;;;;;;5.03;2.40;;;10.50;99.90;;;;;;5050138;28;20118;-35
2022/05/31 02:20:40;;;;;;;3.20;2.47;;;10.50;99.90;;;;;;5041344;28;20389;-35
2022/05/31 02:23:06;;;;;;;2.40;1.90;;;10.50;99.90;;;;;;5034606;28;20489;-37
2022/05/31 02:25:32;;;;;;;6.80;2.83;;;10.50;99.90;;;;;;5046266;28;20033;-37
2022/05/31 02:27:58;;;;;;;3.47;2.42;;;10.60;99.90;;;;;;5044309;28;20536;-33
2022/05/31 02:30:24;;;;;;;3.92;2.83;;;10.50;99.90;;;;;;5035586;28;20231;-37
2022/05/31 02:32:49;;;;;;;5.60;2.22;;;10.60;99.90;;;;;;5034512;28;20393;-36
2022/05/31 02:35:15;;;;;;;6.72;2.58;;;10.60;99.90;;;;;;5040905;28;20028;-27
2022/05/31 02:37:41;;;;;;;4.65;2.70;;;10.60;99.90;;;;;;5036347;28;20036;-29
2022/05/31 02:40:08;;;;;;;4.28;2.20;;;10.60;99.90;;;;;;5040876;28;20021;-27
2022/05/31 02:42:36;;;;;;;3.33;2.13;;;10.50;99.90;;;;;;5053317;28;20029;-35
2022/05/31 02:45:05;;;;;;;4.45;2.33;;;10.50;99.90;;;;;;5050615;28;20481;-31
2022/05/31 02:47:30;;;;;;;;;;;10.50;99.90;;;;;;5054021;28;20469;-30
2022/05/31 02:49:56;;;;;;;6.95;3.03;;;10.50;99.90;;;;;;5051980;28;19999;-29
2022/05/31 02:52:22;;;;;;;4.50;2.65;;;10.50;99.90;;;;;;5047417;28;20030;-28
2022/05/31 02:54:48;;;;;;;2.58;2.25;;;10.40;99.90;;;;;;5045674;28;20484;-29
2022/05/31 02:57:13;;;;;;;2.30;2.10;;;10.40;99.90;;;;;;5054506;28;20062;-31
2022/05/31 02:59:40;;;;;;;3.90;2.47;;;10.40;99.90;;;;;;5050378;28;20432;-29
2022/05/31 03:02:06;;;;;;;3.25;2.53;;;10.40;99.90;;;;;;5046950;28;20017;-32
2022/05/31 03:04:32;;;;;;;2.55;2.25;;;10.40;99.90;;;;;;5050999;28;20469;-29
2022/05/31 03:07:01;;;;;;;2.25;1.75;;;10.40;99.90;;;;;;5032694;28;20508;-29
2022/05/31 03:09:29;;;;;;;3.85;2.83;;;10.50;99.90;;;;;;5033627;28;20496;-28
2022/05/31 03:11:57;;;;;;;3.23;2.60;;;10.50;99.90;;;;;;5036691;28;20025;-27
2022/05/31 03:14:41;;;;;;;5.10;2.50;;;10.50;99.90;;;;;;5052212;28;20790;-27
2022/05/31 03:17:30;;;;;;;3.25;2.40;;;10.50;99.90;;;;;;5054228;28;20028;-46
2022/05/31 03:20:09;;;;;;;5.35;2.60;;;10.50;99.90;;;;;;5049868;28;20052;-37
2022/05/31 03:22:41;;;;;;;2.60;2.33;;;10.50;99.90;;;;;;5040433;28;20030;-36
2022/05/31 03:25:16;;;;;;;2.65;2.45;;;10.50;99.90;;;;;;5034173;28;20505;-37
2022/05/31 03:27:42;;;;;;;6.47;2.15;;;10.50;99.90;;;;;;5040867;28;20112;-35
2022/05/31 03:30:08;;;;;;;3.40;2.30;;;10.50;99.90;;;;;;5049696;28;20112;-37
2022/05/31 03:32:35;;;;;;;2.35;2.15;;;10.50;99.90;;;;;;5034442;28;20428;-37
2022/05/31 03:35:01;;;;;;;3.60;2.38;;;10.50;99.90;;;;;;5033365;28;20076;-37
2022/05/31 03:37:27;;;;;;;5.85;2.20;;;10.50;99.90;;;;;;5033427;28;20040;-33
2022/05/31 03:39:53;;;;;;;3.65;2.22;;;10.40;99.90;;;;;;5033774;28;20030;-37
2022/05/31 03:42:18;;;;;;;4.82;2.55;;;10.50;99.90;;;;;;5038024;28;20104;-37
2022/05/31 03:44:44;;;;;;;7.47;2.40;;;10.50;99.90;;;;;;5034881;28;20466;-36
2022/05/31 03:47:09;;;;;;;4.53;2.13;;;10.60;99.90;;;;;;5034374;28;20105;-55
2022/05/31 03:49:35;;;;;;;6.57;2.42;;;10.60;99.90;;;;;;5050861;28;20029;-35
2022/05/31 03:52:02;;;;;;;5.05;2.85;;;10.60;99.90;;;;;;5040518;28;20040;-37
2022/05/31 03:54:29;;;;;;;3.28;2.50;;;10.60;99.90;;;;;;5047537;28;20125;-37
2022/05/31 03:56:54;;;;;;;3.50;2.63;;;10.60;99.90;;;;;;5051804;28;20373;-38
2022/05/31 03:59:20;;;;;;;5.75;2.47;;;10.70;99.90;;;;;;5048565;28;20036;-38
2022/05/31 04:01:46;;;;;;;4.43;2.40;;;10.70;99.90;;;;;;5041648;28;20099;-37
2022/05/31 04:04:11;;;;;;;3.90;2.65;;;10.80;99.90;;;;;;5033245;28;20484;-35
2022/05/31 04:06:38;;;;;;;3.30;1.92;;;10.80;99.90;;;;;;5033453;28;20206;-36
2022/05/31 04:09:22;;;;;;;3.00;2.28;;;10.90;99.90;;;;;;5033174;28;20092;-35
2022/05/31 04:11:48;;;;;;;5.35;2.13;;;10.90;99.90;;;;;;5046235;28;20032;-36
2022/05/31 04:14:13;;;;;;;6.25;2.60;;;11.00;99.90;;;;;;5053018;28;20044;-37
2022/05/31 04:16:39;;;;;;;2.60;2.35;;;11.00;99.90;;;;;;5053245;28;20602;-37
2022/05/31 04:19:05;;;;;;;4.10;2.13;;;11.10;99.90;;;;;;5052522;28;20388;-36
2022/05/31 04:21:30;;;;;;;2.42;2.22;;;11.10;99.90;;;;;;5040285;28;20080;-38
2022/05/31 04:23:59;;;;;;;2.50;2.30;;;11.10;99.90;;;;;;5051567;28;20029;-36
2022/05/31 04:26:28;;;;;;;3.00;2.67;;;11.10;99.90;;;;;;5053082;28;20025;-37
2022/05/31 04:28:54;;;;;;;4.15;2.60;;;11.10;99.90;;;;;;5051895;28;20033;-35
2022/05/31 04:31:20;;;;;;;5.07;2.25;;;11.00;99.90;;;;;;5040452;28;20021;-33
2022/05/31 04:33:46;;;;;;;3.08;2.33;;;11.00;99.90;;;;;;5042969;28;20428;-44
2022/05/31 04:36:14;;;;;;;3.88;2.85;;;11.10;99.90;;;;;;5033092;28;20036;-30
2022/05/31 04:38:40;;;;;;;2.95;2.42;;;11.20;99.90;;;;;;5037479;28;20029;-29
2022/05/31 04:41:07;;;;;;;4.80;2.63;;;11.30;99.90;;;;;;5047085;28;20053;-28
2022/05/31 04:43:33;;;;;;;4.53;2.80;;;11.30;99.90;;;;;;5033400;28;20034;-29
2022/05/31 04:46:14;;;;;;;4.53;2.80;;;11.30;99.90;;;;;;5040867;28;20503;-46
2022/05/31 04:48:39;;;;;;;7.32;3.40;;;11.30;99.90;;;;;;5037369;28;20026;-31
2022/05/31 04:51:05;;;;;;;5.28;2.65;;;11.30;99.90;;;;;;5047888;28;20395;-29
2022/05/31 04:53:32;;;;;;;4.88;2.78;;;11.30;99.90;;;;;;5056731;28;20033;-31
2022/05/31 04:56:03;;;;;;;3.30;2.65;;;11.30;99.90;;;;;;5055511;28;20515;-28
2022/05/31 04:58:28;;;;;;;2.67;2.47;;;11.30;99.90;;;;;;5053808;28;20021;-29
2022/05/31 05:00:54;;;;;;;4.53;3.17;;;11.30;99.90;;;;;;5041080;28;20025;-32
2022/05/31 05:03:20;;;;;;;2.70;2.50;;;11.40;99.90;;;;;;5046239;28;20071;-36
2022/05/31 05:05:45;;;;;;;4.90;2.75;;;11.40;99.90;;;;;;5054457;28;20037;-28
2022/05/31 05:08:11;;;;;;;4.55;3.17;;;11.50;99.90;;;;;;5053060;28;20040;-30
2022/05/31 05:10:37;;;;;;;3.95;3.05;;;11.60;99.90;;;;;;5053664;28;20100;-34
2022/05/31 05:13:03;;;;;;;4.30;2.60;;;11.60;99.90;;;;;;5052009;28;20484;-30
2022/05/31 05:15:29;;;;;;;4.65;2.55;;;11.70;99.90;;;;;;5047488;28;20048;-30
2022/05/31 05:17:55;;;;;;;5.47;2.95;;;11.90;99.90;;;;;;5040622;28;20017;-28
2022/05/31 05:20:22;;;;;;;5.93;3.47;;;12.00;99.90;;;;;;5054881;28;20071;-31
2022/05/31 05:22:48;;;;;;;8.10;3.35;;;12.10;99.90;;;;;;5053469;28;20120;-28
2022/05/31 05:25:13;;;;;;;4.70;2.90;;;12.30;99.90;;;;;;5034131;28;20108;-29
2022/05/31 05:27:39;;;;;;;7.18;3.42;;;12.40;99.90;;;;;;5041633;28;20029;-35
2022/05/31 05:32:49;;;;;;;4.38;3.47;;;12.70;99.90;;;;;;5036352;28;20087;-30
2022/05/31 05:35:14;;;;;;;5.28;3.33;;;12.70;99.90;;;;;;5035939;28;20025;-32
2022/05/31 05:37:40;;;;;;;9.35;4.13;;;12.80;99.90;;;;;;5045425;28;20017;-29
2022/05/31 05:40:06;;;;;;;4.38;2.95;;;12.90;99.90;;;;;;5055964;28;20036;-28
2022/05/31 05:42:32;;;;;;;10.95;3.45;;;13.00;99.90;;;;;;5038543;28;20446;-31
2022/05/31 05:44:59;;;;;;;9.23;3.50;;;13.10;99.90;;;;;;5053077;28;20056;-29
2022/05/31 05:47:25;;;;;;;4.45;3.17;;;13.20;99.90;;;;;;5051921;28;20026;-31
2022/05/31 05:49:52;;;;;;;5.70;2.95;;;13.30;99.90;;;;;;5035891;28;20492;-30
2022/05/31 05:52:17;;;;;;;4.50;3.55;;;13.40;99.90;;;;;;5035301;28;20481;-31
2022/05/31 05:54:43;;;;;;;6.50;3.58;;;13.40;99.90;;;;;;5036268;28;20026;-29
2022/05/31 05:57:09;;;;;;;6.38;3.20;;;13.40;99.90;;;;;;5036701;28;20025;-29
2022/05/31 05:59:34;;;;;;;7.03;3.80;;;13.60;99.90;;;;;;5050242;28;20024;-29
2022/05/31 06:02:08;;;;;;;6.40;2.97;;;13.60;99.90;;;;;;5035566;28;20021;-42
2022/05/31 06:04:48;;;;;;;3.75;2.72;;;13.70;99.90;;;;;;5040658;28;20436;-38
2022/05/31 06:07:34;;;;;;;10.00;4.03;;;13.60;99.90;;;;;;5040055;28;20041;-28
2022/05/31 06:10:20;;;;;;;4.60;3.75;;;13.80;99.90;;;;;;5042015;28;20476;-28
2022/05/31 06:12:59;;;;;;;11.40;4.85;;;14.00;99.90;;;;;;5055072;28;20053;-27
2022/05/31 06:15:33;;;;;;;4.35;3.45;;;14.30;99.90;;;;;;5045272;28;20025;-29
2022/05/31 06:18:06;;;;;;;6.38;3.60;;;14.50;99.90;;;;;;5034806;28;20485;-29
2022/05/31 06:20:32;;;;;;;8.27;3.83;;;15.10;99.90;;;;;;5043727;28;20017;-30
2022/05/31 06:22:58;;;;;;;8.70;3.60;;;15.80;99.90;;;;;;5037141;28;20051;-33
2022/05/31 06:25:24;;;;;;;4.82;3.67;;;16.50;99.90;;;;;;5051354;28;20488;-27
2022/05/31 06:27:50;;;;;;;6.75;3.42;;;16.90;99.90;;;;;;5039366;28;20109;-31
2022/05/31 06:30:16;;;;;;;4.50;3.55;;;17.10;99.90;;;;;;5036536;28;20486;-29
2022/05/31 06:32:42;;;;;;;4.35;2.95;;;18.30;99.90;;;;;;5035142;28;20032;-29
2022/05/31 06:35:09;;;;;;;4.93;2.85;;;20.20;99.90;;;;;;5034952;28;20060;-32
2022/05/31 06:37:34;;;;;;;5.73;3.23;;;21.90;98.00;;;;;;5034478;28;20495;-28
2022/05/31 06:40:00;;;;;;;3.97;2.75;;;22.90;96.40;;;;;;5036022;28;20034;-31
2022/05/31 06:42:28;;;;;;;8.15;2.92;;;23.30;95.60;;;;;;5034216;28;20045;-47
2022/05/31 06:44:54;;;;;;;4.22;2.60;;;22.80;95.80;;;;;;5033760;28;20401;-37
2022/05/31 06:47:20;;;;;;;2.90;2.65;;;21.70;96.60;;;;;;5035020;28;20029;-43
2022/05/31 06:49:45;;;;;;;5.13;2.13;;;20.50;96.70;;;;;;5044136;28;20026;-35
2022/05/31 06:57:52;;;;;;;7.65;2.70;;;18.90;98.30;;;;;;5016234;28;20041;-33
2022/05/31 07:00:19;;;;;;;5.90;2.47;;;19.80;97.50;;;;;;5037510;28;20018;-38
2022/05/31 07:02:46;;;;;;;6.82;2.47;;;21.00;96.40;;;;;;5040015;28;20342;-42
2022/05/31 07:05:13;;;;;;;12.35;2.63;;;22.40;95.70;;;;;;5049433;28;20025;-38
2022/05/31 07:07:39;;;;;;;5.00;2.13;;;23.40;94.60;;;;;;5047860;28;20469;-37
2022/05/31 07:10:06;;;;;;;9.65;2.60;;;24.00;93.30;;;;;;5051049;28;20493;-38
2022/05/31 07:12:33;;;;;;;7.40;3.08;;;24.00;93.70;;;;;;5053818;28;20041;-29
2022/05/31 07:14:59;;;;;;;9.73;2.72;;;24.00;93.30;;;;;;5041303;28;20404;-47
2022/05/31 07:17:24;;;;;;;4.45;2.17;;;23.80;93.60;;;;;;5041189;28;20524;-37
2022/05/31 07:19:50;;;;;;;4.85;2.80;;;23.80;93.90;;;;;;5046178;28;20022;-37
2022/05/31 07:22:16;;;;;;;7.75;2.97;;;23.50;94.00;;;;;;5033320;28;20033;-36
2022/05/31 07:24:42;;;;;;;4.20;2.38;;;22.60;94.20;;;;;;5039717;28;20020;-43
2022/05/31 07:27:08;;;;;;;9.25;2.33;;;21.70;95.10;;;;;;5040188;28;20465;-45
2022/05/31 07:29:33;;;;;;;2.25;2.03;;;21.20;94.50;;;;;;5047800;28;20028;-36
2022/05/31 07:32:00;;;;;;;7.03;2.88;;;20.50;95.70;;;;;;5046093;28;20021;-38
2022/05/31 07:34:26;;;;;;;4.65;2.85;;;20.10;96.00;;;;;;5045833;28;20084;-38
2022/05/31 07:36:52;;;;;;;3.03;2.53;;;19.80;96.60;;;;;;5052308;28;20029;-41
2022/05/31 07:39:20;;;;;;;6.45;3.58;;;19.50;96.90;;;;;;5051365;28;20035;-37
2022/05/31 07:41:46;;;;;;;4.30;2.85;;;19.10;97.50;;;;;;5053698;28;20476;-37
2022/05/31 07:44:14;;;;;;;5.97;2.72;;;18.80;97.10;;;;;;5053682;28;20017;-28
2022/05/31 07:46:39;;;;;;;6.10;2.55;;;18.50;97.80;;;;;;5038689;28;20435;-33
2022/05/31 07:49:05;;;;;;;17.90;4.40;;;18.50;98.00;;;;;;5047803;28;20017;-30
2022/05/31 07:51:31;;;;;;;7.78;3.08;;;18.80;97.50;;;;;;5051719;28;20111;-34
2022/05/31 07:54:16;;;;;;;8.82;3.58;;;19.20;97.10;;;;;;5039922;28;20172;-28
2022/05/31 07:56:41;;;;;;;5.43;3.83;;;19.30;97.40;;;;;;5034041;28;20549;-32
2022/05/31 07:59:07;;;;;;;5.55;4.05;;;19.40;97.20;;;;;;5035780;28;20109;-31
2022/05/31 08:01:33;;;;;;;7.25;4.22;;;19.20;96.50;;;;;;5033643;28;20018;-32
2022/05/31 08:03:59;;;;;;;6.28;4.25;;;19.00;96.90;;;;;;5050863;28;20075;-28
2022/05/31 08:06:29;;;;;;;9.57;5.05;;;19.00;97.10;;;;;;5034671;28;20080;-31
2022/05/31 08:08:57;;;;;;;14.27;5.60;;;18.80;97.40;;;;;;5033642;28;20485;-31
2022/05/31 08:11:29;;;;;;;6.22;4.82;;;18.80;97.30;;;;;;5032866;28;20040;-31
2022/05/31 08:13:55;;;;;;;11.10;5.75;;;18.80;96.30;;;;;;5049279;28;20044;-31
2022/05/31 08:16:23;;;;;;;10.38;5.55;;;18.90;96.80;;;;;;5025372;28;20378;-31
2022/05/31 08:18:49;;;;;;;9.73;5.22;;;19.30;97.60;;;;;;5034746;28;20021;-34
2022/05/31 08:21:27;;;;;;;7.63;4.50;;;19.80;97.30;;;;;;5030593;28;20029;-35
2022/05/31 08:23:54;;;;;;;7.00;4.15;;;20.40;96.40;;;;;;5036812;28;20111;-29
2022/05/31 08:26:19;;;;;;;14.35;4.88;;;20.90;94.60;;;;;;5037157;28;20505;-32
2022/05/31 08:28:45;;;;;;;8.75;5.85;;;21.20;94.70;;;;;;5032919;28;20038;-29
2022/05/31 08:31:12;;;;;;;7.75;4.75;;;21.20;94.80;;;;;;5034705;28;20032;-37
2022/05/31 08:33:41;;;;;;;4.80;4.40;;;21.40;94.30;;;;;;5036549;28;20110;-37
2022/05/31 08:36:08;;;;;;;8.80;4.75;;;21.50;93.80;;;;;;5031546;28;20512;-37
2022/05/31 08:38:34;;;;;;;8.45;5.65;;;21.90;93.60;;;;;;5034689;28;20033;-38
2022/05/31 08:41:11;;;;;;;7.03;5.75;;;22.40;93.70;;;;;;5044625;28;20029;-38
2022/05/31 08:43:50;;;;;;;;;;;22.90;93.30;;;;;;5037964;28;20036;-38
2022/05/31 08:46:46;;;;;;;12.73;5.93;;;23.20;92.50;;;;;;5034398;28;19921;-38
2022/05/31 08:52:26;;;;;;;9.43;5.22;;;23.40;93.00;;;;;;5053033;28;20048;-38
2022/05/31 08:57:57;;;;;;;9.55;5.20;;;22.90;93.40;;;;;;5031821;28;20040;-36
2022/05/31 09:00:33;;;;;;;12.38;5.47;;;22.10;93.30;;;;;;5035270;28;20025;-38
2022/05/31 09:03:15;;;;;;;7.30;5.28;;;21.50;93.60;;;;;;5039728;28;20041;-37
2022/05/31 09:05:52;;;;;;;4.72;4.28;;;21.10;93.40;;;;;;5031768;28;20048;-37
2022/05/31 09:08:20;;;;;;;;;;;21.00;93.90;;;;;;5031268;28;20617;-38
2022/05/31 09:10:52;;;;;;;8.63;4.18;;;21.40;93.40;;;;;;5031939;28;20403;-37
2022/05/31 09:13:23;;;;;;;9.18;3.95;;;22.00;92.40;;;;;;5035219;28;20041;-35
2022/05/31 09:16:07;;;;;;;4.85;3.60;;;22.10;93.20;;;;;;5031817;28;20029;-37
2022/05/31 09:18:50;;;;;;;4.70;3.22;;;22.60;90.90;;;;;;5034419;28;20122;-37
2022/05/31 09:21:27;;;;;;;3.72;3.35;;;22.80;90.80;;;;;;5033704;28;20435;-40
2022/05/31 09:23:55;;;;;;;;;;;22.80;91.00;;;;;;5049912;28;20485;-65
2022/05/31 09:26:40;;;;;;;8.25;3.78;;;22.50;90.80;;;;;;5044665;28;19967;-46
2022/05/31 09:29:11;;;;;;;8.85;3.85;;;22.50;91.20;;;;;;5033456;28;20476;-39
2022/05/31 09:31:43;;;;;;;4.25;3.38;;;22.80;90.20;;;;;;5036062;28;20032;-37
2022/05/31 09:34:15;;;;;;;4.53;2.58;;;22.90;89.00;;;;;;5044367;28;20121;-39
2022/05/31 09:36:52;;;;;;;6.85;3.75;;;22.90;90.30;;;;;;5035792;28;20029;-66
2022/05/31 09:39:40;;;;;;;8.18;2.70;;;23.20;90.30;;;;;;5038545;28;20021;-39
2022/05/31 09:42:20;;;;;;;7.07;2.83;;;23.30;89.30;;;;;;5042278;28;20021;-41
2022/05/31 09:45:00;;;;;;;7.57;3.20;;;22.80;89.20;;;;;;5054874;28;20451;-38
2022/05/31 09:47:27;;;;;;;5.28;3.28;;;22.10;88.00;;;;;;5054785;28;20028;-37
2022/05/31 09:49:54;;;;;;;5.68;3.20;;;21.30;90.20;;;;;;5043742;28;20064;-37
2022/05/31 09:52:33;;;;;;;6.75;4.50;;;20.60;91.10;;;;;;5046903;28;20029;-38
2022/05/31 09:58:12;;;;;;;6.30;4.18;;;19.80;92.70;;;;;;5035893;28;20060;-37
2022/05/31 10:00:56;;;;;;;8.45;4.65;;;19.60;92.50;;;;;;5048923;28;20378;-37
2022/05/31 10:03:43;;;;;;;8.85;4.00;;;19.30;93.00;;;;;;5037431;28;20076;-37
2022/05/31 10:06:19;;;;;;;4.32;3.83;;;19.50;93.40;;;;;;5044579;28;20121;-35
2022/05/31 10:08:51;;;;;;;5.95;3.70;;;19.80;93.60;;;;;;5034520;28;20487;-37
2022/05/31 10:11:30;;;;;;;5.95;3.35;;;20.30;92.00;;;;;;5043217;28;20480;-38
2022/05/31 10:14:05;;;;;;;7.70;3.90;;;20.40;91.10;;;;;;5052374;28;20134;-38
2022/05/31 10:16:32;;;;;;;5.88;3.42;;;20.20;91.70;;;;;;5042677;28;20021;-37
2022/05/31 10:19:00;;;;;;;7.00;3.55;;;20.20;92.10;;;;;;5033136;28;20044;-37
2022/05/31 10:21:34;;;;;;;4.47;3.25;;;20.10;91.90;;;;;;5033145;28;20477;-37
2022/05/31 10:24:05;;;;;;;7.97;2.95;;;20.30;92.40;;;;;;5042346;28;20106;-38
2022/05/31 10:26:38;;;;;;;3.92;2.70;;;20.60;92.60;;;;;;5055415;28;20469;-37
2022/05/31 10:29:30;;;;;;;4.57;3.92;;;20.80;92.60;;;;;;5041023;28;20611;-36
2022/05/31 10:31:56;;;;;;;6.57;3.90;;;20.70;92.40;;;;;;5033373;28;20041;-37
2022/05/31 10:34:35;;;;;;;5.78;4.18;;;20.50;92.70;;;;;;5039449;28;20037;-37
2022/05/31 10:37:06;;;;;;;5.22;3.55;;;20.10;93.60;;;;;;5044757;28;20032;-38
2022/05/31 10:39:36;;;;;;;5.25;3.30;;;19.80;93.50;;;;;;5043525;28;20078;-37
2022/05/31 10:42:09;;;;;;;8.32;4.63;;;19.60;93.60;;;;;;5039957;28;20056;-38
2022/05/31 10:44:44;;;;;;;5.60;2.88;;;19.30;93.00;;;;;;5032676;28;20029;-37
2022/05/31 10:47:13;;;;;;;5.70;3.17;;;19.10;93.10;;;;;;5034477;28;20028;-37
2022/05/31 10:49:40;;;;;;;3.00;2.70;;;19.00;93.30;;;;;;5033800;28;20018;-37
2022/05/31 10:52:17;;;;;;;6.82;3.15;;;18.80;94.10;;;;;;5039086;28;20029;-38
2022/05/31 10:55:02;;;;;;;;;;;18.50;95.70;;;;;;5034535;28;20489;-38
2022/05/31 10:57:55;;;;;;;4.30;3.65;;;18.40;98.00;;;;;;5034512;28;19932;-37
2022/05/31 11:00:52;;;;;;;5.80;3.67;;;18.10;98.10;;;;;;5034882;28;20466;-38
2022/05/31 11:03:43;;;;;;;4.95;3.20;;;17.80;98.00;;;;;;5020076;28;20497;-43
2022/05/31 11:06:30;;;;;;;5.25;2.90;;;17.60;96.80;;;;;;5033740;28;20030;-34
2022/05/31 11:12:43;;;;;;;5.50;3.00;;;18.00;96.60;;;;;;5034448;28;20117;-32
2022/05/31 11:15:29;;;;;;;6.57;3.28;;;18.90;96.50;;;;;;5033837;28;20041;-28
2022/05/31 11:18:02;;;;;;;5.00;2.60;;;19.50;95.50;;;;;;5039067;28;20565;-40
2022/05/31 11:20:42;;;;;;;3.22;2.70;;;20.20;95.10;;;;;;5034480;28;20469;-31
2022/05/31 11:23:38;;;;;;;5.72;2.90;;;20.50;93.80;;;;;;5034285;28;20092;-38
2022/05/31 11:26:48;;;;;;;8.98;3.55;;;20.90;93.90;;;;;;5033622;28;20537;-38
2022/05/31 11:29:26;;;;;;;8.35;3.08;;;21.00;92.50;;;;;;5029038;28;20041;-49
2022/05/31 11:32:25;;;;;;;5.57;3.50;;;20.50;93.20;;;;;;5036748;28;20093;-38
2022/05/31 11:35:06;;;;;;;5.28;3.30;;;20.20;92.90;;;;;;5037679;28;20585;-38
2022/05/31 11:37:58;;;;;;;6.22;2.90;;;19.80;93.20;;;;;;5033517;28;20139;-38
2022/05/31 11:40:43;;;;;;;10.43;3.05;;;19.50;94.10;;;;;;5034171;28;20125;-37
2022/05/31 11:43:21;;;;;;;6.43;2.90;;;19.30;94.50;;;;;;5033013;28;20048;-45
2022/05/31 11:46:06;;;;;;;6.32;3.28;;;19.30;93.50;;;;;;5041849;28;20031;-54
2022/05/31 11:48:52;;;;;;;7.47;3.00;;;19.30;92.30;;;;;;5036063;28;20040;-38
2022/05/31 11:51:24;;;;;;;4.40;2.78;;;19.30;92.40;;;;;;5033610;28;20061;-38
2022/05/31 11:53:59;;;;;;;5.03;3.17;;;19.10;93.10;;;;;;5032573;28;20482;-29
2022/05/31 11:57:01;;;;;;;5.75;3.05;;;19.00;93.20;;;;;;5036732;28;20492;-33
2022/05/31 11:59:52;;;;;;;2.72;2.40;;;19.00;93.50;;;;;;5034701;28;20018;-30
2022/05/31 12:02:37;;;;;;;4.68;2.25;;;19.00;93.60;;;;;;5034051;28;20591;-31
2022/05/31 12:05:18;;;;;;;3.58;2.30;;;19.10;92.90;;;;;;5034378;28;20048;-36
2022/05/31 12:07:57;;;;;;;4.07;2.58;;;19.00;93.30;;;;;;5033037;28;20489;-32
2022/05/31 12:10:46;;;;;;;5.30;2.75;;;19.00;93.50;;;;;;5033116;28;20017;-30
2022/05/31 12:13:15;;;;;;;4.80;2.63;;;18.90;93.60;;;;;;5035901;28;20046;-32
2022/05/31 12:15:45;;;;;;;4.90;2.60;;;18.90;94.90;;;;;;5036890;28;20418;-28
2022/05/31 12:18:11;;;;;;;5.85;2.67;;;18.80;93.70;;;;;;5033440;28;20025;-32
2022/05/31 12:20:55;;;;;;;4.55;3.13;;;18.60;95.00;;;;;;5032988;28;20084;-31
2022/05/31 12:23:32;;;;;;;6.40;3.63;;;18.50;95.90;;;;;;5033257;28;20474;-32
2022/05/31 12:25:59;;;;;;;4.57;3.25;;;18.60;96.30;;;;;;5032804;28;20115;-31
2022/05/31 12:28:44;;;;;;;5.47;2.97;;;19.10;96.00;;;;;;5036279;28;20036;-33
2022/05/31 12:31:26;;;;;;;7.13;3.20;;;19.80;96.30;;;;;;5032871;28;20037;-33
2022/05/31 12:33:52;;;;;;;5.80;3.42;;;20.40;96.00;;;;;;5031488;28;20462;-33
2022/05/31 12:36:23;;;;;;;6.88;4.18;;;20.90;94.50;;;;;;5035726;28;20534;-32
2022/05/31 12:39:06;;;;;;;6.00;3.45;;;21.40;93.20;;;;;;5033476;28;20026;-28
2022/05/31 12:41:43;;;;;;;5.25;3.28;;;21.60;94.00;;;;;;5035009;28;20013;-30
2022/05/31 12:44:15;;;;;;;7.78;3.63;;;21.50;93.10;;;;;;5032348;28;20037;-32
2022/05/31 12:46:46;;;;;;;4.53;2.97;;;21.30;93.70;;;;;;5032908;28;20039;-29
2022/05/31 12:49:28;;;;;;;11.43;4.03;;;21.20;94.50;;;;;;5032573;28;20498;-32
2022/05/31 12:53:04;;;;;;;8.32;3.75;;;20.90;94.00;;;;;;5033521;28;20422;-31
2022/05/31 12:55:20;;;;;;;6.07;3.75;;;20.50;94.60;;;;;;5045825;28;20036;-29
2022/05/31 13:00:32;;;;;;;4.68;3.33;;;19.50;95.30;;;;;;5032179;28;20122;-35
2022/05/31 13:03:00;;;;;;;7.50;3.25;;;19.10;95.70;;;;;;5032989;28;20152;-28
2022/05/31 13:05:57;;;;;;;7.25;3.20;;;18.70;95.10;;;;;;5032204;28;20481;-31
2022/05/31 13:08:52;;;;;;;6.30;3.10;;;18.40;96.30;;;;;;5036992;28;20155;-30
2022/05/31 13:20:13;;;;;;;12.57;4.25;;;17.00;99.90;;;;;;5037022;28;20087;-31
2022/05/31 13:22:44;;;;;;;6.38;3.65;;;16.50;99.90;;;;;;5036676;28;20037;-35
2022/05/31 13:25:30;;;;;;;9.52;5.15;;;16.10;99.90;;;;;;5036028;28;20395;-32
2022/05/31 13:28:01;;;;;;;7.03;4.55;;;15.70;99.90;;;;;;5036262;28;20029;-32
2022/05/31 13:30:30;;;;;;;12.63;5.20;;;15.50;99.90;;;;;;5035805;28;20025;-29
2022/05/31 13:32:57;;;;;;;10.27;5.60;;;15.40;99.90;;;;;;5037519;28;20032;-34
2022/05/31 13:35:26;;;;;;;8.52;5.20;;;15.50;99.90;;;;;;5036124;28;20381;-27
2022/05/31 13:38:06;;;;;;;8.80;4.72;;;15.50;99.90;;;;;;5034760;28;20032;-47
2022/05/31 13:40:44;;;;;;;8.55;5.05;;;15.60;99.90;;;;;;5035791;28;20030;-38
2022/05/31 13:43:23;;;;;;;11.23;4.82;;;15.70;99.90;;;;;;5049965;28;20508;-37